sensor_id;sensor_type;location;lat;lon;timestamp;P1;durP1;ratioP1;P2;durP2;ratioP2
32491;SDS011;20605;49.742;18.802;2022-12-18T00:01:20;112.92;;;46.35;;
32491;SDS011;20605;49.742;18.802;2022-12-18T00:03:49;112.95;;;45.17;;
32491;SDS011;20605;49.742;18.802;2022-12-18T00:06:18;106.70;;;45.25;;
32491;SDS011;20605;49.742;18.802;2022-12-18T00:08:45;113.92;;;45.15;;
32491;SDS011;20605;49.742;18.802;2022-12-18T00:11:14;119.25;;;47.88;;
32491;SDS011;20605;49.742;18.802;2022-12-18T00:13:43;116.75;;;45.78;;
32491;SDS011;20605;49.742;18.802;2022-12-18T00:16:11;115.57;;;47.80;;
32491;SDS011;20605;49.742;18.802;2022-12-18T00:18:41;131.63;;;51.28;;
32491;SDS011;20605;49.742;18.802;2022-12-18T00:21:09;124.72;;;50.80;;
32491;SDS011;20605;49.742;18.802;2022-12-18T00:23:38;119.22;;;48.58;;
32491;SDS011;20605;49.742;18.802;2022-12-18T00:26:09;117.57;;;49.08;;
32491;SDS011;20605;49.742;18.802;2022-12-18T00:28:42;119.30;;;46.75;;
32491;SDS011;20605;49.742;18.802;2022-12-18T00:31:11;113.55;;;47.08;;
32491;SDS011;20605;49.742;18.802;2022-12-18T00:33:44;117.77;;;48.10;;
32491;SDS011;20605;49.742;18.802;2022-12-18T00:36:12;121.65;;;48.58;;
32491;SDS011;20605;49.742;18.802;2022-12-18T00:38:42;117.60;;;47.70;;
32491;SDS011;20605;49.742;18.802;2022-12-18T00:41:10;119.33;;;48.30;;
32491;SDS011;20605;49.742;18.802;2022-12-18T00:43:39;121.65;;;49.08;;
32491;SDS011;20605;49.742;18.802;2022-12-18T00:46:06;112.37;;;46.00;;
32491;SDS011;20605;49.742;18.802;2022-12-18T00:48:33;123.22;;;47.20;;
32491;SDS011;20605;49.742;18.802;2022-12-18T00:50:59;116.62;;;44.98;;
32491;SDS011;20605;49.742;18.802;2022-12-18T00:53:26;118.93;;;47.03;;
32491;SDS011;20605;49.742;18.802;2022-12-18T00:55:55;119.82;;;46.75;;
32491;SDS011;20605;49.742;18.802;2022-12-18T00:58:21;129.68;;;48.30;;
32491;SDS011;20605;49.742;18.802;2022-12-18T01:00:48;123.42;;;46.88;;
32491;SDS011;20605;49.742;18.802;2022-12-18T01:03:15;124.00;;;45.75;;
32491;SDS011;20605;49.742;18.802;2022-12-18T01:05:43;117.47;;;46.18;;
32491;SDS011;20605;49.742;18.802;2022-12-18T01:08:10;119.97;;;44.15;;
32491;SDS011;20605;49.742;18.802;2022-12-18T01:10:39;111.57;;;42.13;;
32491;SDS011;20605;49.742;18.802;2022-12-18T01:13:07;116.80;;;44.60;;
32491;SDS011;20605;49.742;18.802;2022-12-18T01:15:34;117.77;;;44.45;;
32491;SDS011;20605;49.742;18.802;2022-12-18T01:18:01;115.95;;;45.85;;
32491;SDS011;20605;49.742;18.802;2022-12-18T01:20:30;118.53;;;47.10;;
32491;SDS011;20605;49.742;18.802;2022-12-18T01:22:57;118.53;;;45.73;;
32491;SDS011;20605;49.742;18.802;2022-12-18T01:25:26;126.00;;;46.83;;
32491;SDS011;20605;49.742;18.802;2022-12-18T01:27:53;116.28;;;49.10;;
32491;SDS011;20605;49.742;18.802;2022-12-18T01:30:19;113.28;;;46.15;;
32491;SDS011;20605;49.742;18.802;2022-12-18T01:32:46;113.68;;;43.78;;
32491;SDS011;20605;49.742;18.802;2022-12-18T01:35:13;115.72;;;43.95;;
32491;SDS011;20605;49.742;18.802;2022-12-18T01:37:39;116.80;;;46.58;;
32491;SDS011;20605;49.742;18.802;2022-12-18T01:40:07;121.13;;;48.00;;
32491;SDS011;20605;49.742;18.802;2022-12-18T01:42:34;121.80;;;46.85;;
32491;SDS011;20605;49.742;18.802;2022-12-18T01:47:56;109.85;;;43.23;;
32491;SDS011;20605;49.742;18.802;2022-12-18T01:50:34;104.60;;;42.10;;
32491;SDS011;20605;49.742;18.802;2022-12-18T01:53:10;106.22;;;43.33;;
32491;SDS011;20605;49.742;18.802;2022-12-18T01:55:45;111.88;;;45.05;;
32491;SDS011;20605;49.742;18.802;2022-12-18T01:58:11;102.45;;;41.98;;
32491;SDS011;20605;49.742;18.802;2022-12-18T02:00:39;100.58;;;40.65;;
32491;SDS011;20605;49.742;18.802;2022-12-18T02:03:06;99.58;;;41.02;;
32491;SDS011;20605;49.742;18.802;2022-12-18T02:17:16;93.87;;;40.30;;
32491;SDS011;20605;49.742;18.802;2022-12-18T02:19:50;112.17;;;47.20;;
32491;SDS011;20605;49.742;18.802;2022-12-18T02:28:37;96.00;;;39.30;;
32491;SDS011;20605;49.742;18.802;2022-12-18T02:31:09;91.82;;;38.60;;
32491;SDS011;20605;49.742;18.802;2022-12-18T02:33:40;89.62;;;35.78;;
32491;SDS011;20605;49.742;18.802;2022-12-18T02:36:11;80.35;;;33.85;;
32491;SDS011;20605;49.742;18.802;2022-12-18T02:38:48;80.42;;;33.50;;
32491;SDS011;20605;49.742;18.802;2022-12-18T02:41:18;83.65;;;35.38;;
32491;SDS011;20605;49.742;18.802;2022-12-18T02:43:49;86.82;;;34.88;;
32491;SDS011;20605;49.742;18.802;2022-12-18T02:49:05;78.75;;;33.95;;
32491;SDS011;20605;49.742;18.802;2022-12-18T02:52:24;78.55;;;33.83;;
32491;SDS011;20605;49.742;18.802;2022-12-18T02:57:16;74.42;;;33.15;;
32491;SDS011;20605;49.742;18.802;2022-12-18T02:59:52;71.90;;;30.65;;
32491;SDS011;20605;49.742;18.802;2022-12-18T03:02:30;76.35;;;33.05;;
32491;SDS011;20605;49.742;18.802;2022-12-18T03:10:28;83.58;;;34.23;;
32491;SDS011;20605;49.742;18.802;2022-12-18T03:13:05;75.03;;;32.93;;
32491;SDS011;20605;49.742;18.802;2022-12-18T03:15:50;76.57;;;33.53;;
32491;SDS011;20605;49.742;18.802;2022-12-18T03:18:23;74.87;;;32.58;;
32491;SDS011;20605;49.742;18.802;2022-12-18T03:21:03;83.52;;;34.80;;
32491;SDS011;20605;49.742;18.802;2022-12-18T03:23:39;84.87;;;35.83;;
32491;SDS011;20605;49.742;18.802;2022-12-18T03:26:12;80.35;;;37.15;;
32491;SDS011;20605;49.742;18.802;2022-12-18T03:28:49;84.30;;;36.85;;
32491;SDS011;20605;49.742;18.802;2022-12-18T03:31:20;83.45;;;36.20;;
32491;SDS011;20605;49.742;18.802;2022-12-18T03:33:54;81.20;;;33.98;;
32491;SDS011;20605;49.742;18.802;2022-12-18T03:36:29;86.42;;;37.35;;
32491;SDS011;20605;49.742;18.802;2022-12-18T03:38:56;81.85;;;34.70;;
32491;SDS011;20605;49.742;18.802;2022-12-18T03:41:32;83.20;;;34.50;;
32491;SDS011;20605;49.742;18.802;2022-12-18T03:44:21;91.82;;;38.10;;
32491;SDS011;20605;49.742;18.802;2022-12-18T03:49:52;74.45;;;33.70;;
32491;SDS011;20605;49.742;18.802;2022-12-18T03:55:14;74.45;;;34.05;;
32491;SDS011;20605;49.742;18.802;2022-12-18T03:57:42;74.97;;;30.55;;
32491;SDS011;20605;49.742;18.802;2022-12-18T04:00:12;66.30;;;27.62;;
32491;SDS011;20605;49.742;18.802;2022-12-18T04:02:51;69.03;;;28.95;;
32491;SDS011;20605;49.742;18.802;2022-12-18T04:05:22;65.32;;;28.80;;
32491;SDS011;20605;49.742;18.802;2022-12-18T04:07:52;74.92;;;30.48;;
32491;SDS011;20605;49.742;18.802;2022-12-18T04:10:21;69.03;;;29.92;;
32491;SDS011;20605;49.742;18.802;2022-12-18T04:12:48;67.62;;;29.15;;
32491;SDS011;20605;49.742;18.802;2022-12-18T04:15:15;66.10;;;28.85;;
32491;SDS011;20605;49.742;18.802;2022-12-18T04:17:48;71.35;;;30.20;;
32491;SDS011;20605;49.742;18.802;2022-12-18T04:20:18;75.92;;;30.45;;
32491;SDS011;20605;49.742;18.802;2022-12-18T04:22:45;73.30;;;31.30;;
32491;SDS011;20605;49.742;18.802;2022-12-18T04:25:12;80.80;;;34.78;;
32491;SDS011;20605;49.742;18.802;2022-12-18T04:27:41;83.17;;;34.43;;
32491;SDS011;20605;49.742;18.802;2022-12-18T04:30:08;70.42;;;30.97;;
32491;SDS011;20605;49.742;18.802;2022-12-18T04:32:36;83.75;;;36.17;;
32491;SDS011;20605;49.742;18.802;2022-12-18T04:35:03;76.15;;;34.78;;
32491;SDS011;20605;49.742;18.802;2022-12-18T04:37:32;74.75;;;32.83;;
32491;SDS011;20605;49.742;18.802;2022-12-18T04:39:59;71.82;;;31.02;;
32491;SDS011;20605;49.742;18.802;2022-12-18T04:42:28;73.62;;;31.12;;
32491;SDS011;20605;49.742;18.802;2022-12-18T04:44:55;72.90;;;31.80;;
32491;SDS011;20605;49.742;18.802;2022-12-18T04:47:21;82.20;;;34.83;;
32491;SDS011;20605;49.742;18.802;2022-12-18T04:49:48;130.12;;;52.00;;
32491;SDS011;20605;49.742;18.802;2022-12-18T04:52:14;117.08;;;46.92;;
32491;SDS011;20605;49.742;18.802;2022-12-18T04:54:41;93.45;;;40.20;;
32491;SDS011;20605;49.742;18.802;2022-12-18T04:57:08;108.00;;;42.50;;
32491;SDS011;20605;49.742;18.802;2022-12-18T04:59:34;72.72;;;28.95;;
32491;SDS011;20605;49.742;18.802;2022-12-18T05:02:01;65.92;;;27.90;;
32491;SDS011;20605;49.742;18.802;2022-12-18T05:04:28;70.05;;;29.65;;
32491;SDS011;20605;49.742;18.802;2022-12-18T05:06:55;72.65;;;34.60;;
32491;SDS011;20605;49.742;18.802;2022-12-18T05:09:22;66.57;;;29.10;;
32491;SDS011;20605;49.742;18.802;2022-12-18T05:11:51;75.50;;;31.20;;
32491;SDS011;20605;49.742;18.802;2022-12-18T05:14:19;77.75;;;33.33;;
32491;SDS011;20605;49.742;18.802;2022-12-18T05:16:46;66.57;;;28.23;;
32491;SDS011;20605;49.742;18.802;2022-12-18T05:19:12;77.27;;;33.40;;
32491;SDS011;20605;49.742;18.802;2022-12-18T05:21:39;72.92;;;30.75;;
32491;SDS011;20605;49.742;18.802;2022-12-18T05:24:06;73.05;;;30.30;;
32491;SDS011;20605;49.742;18.802;2022-12-18T05:26:33;72.47;;;31.02;;
32491;SDS011;20605;49.742;18.802;2022-12-18T05:29:00;74.30;;;33.95;;
32491;SDS011;20605;49.742;18.802;2022-12-18T05:31:26;82.22;;;34.35;;
32491;SDS011;20605;49.742;18.802;2022-12-18T05:33:55;71.22;;;29.80;;
32491;SDS011;20605;49.742;18.802;2022-12-18T05:36:21;74.67;;;31.40;;
32491;SDS011;20605;49.742;18.802;2022-12-18T05:38:48;95.07;;;38.73;;
32491;SDS011;20605;49.742;18.802;2022-12-18T05:41:15;94.07;;;43.28;;
32491;SDS011;20605;49.742;18.802;2022-12-18T05:43:42;97.70;;;47.38;;
32491;SDS011;20605;49.742;18.802;2022-12-18T05:46:14;88.40;;;42.65;;
32491;SDS011;20605;49.742;18.802;2022-12-18T05:48:40;95.05;;;41.53;;
32491;SDS011;20605;49.742;18.802;2022-12-18T05:51:09;80.40;;;37.05;;
32491;SDS011;20605;49.742;18.802;2022-12-18T05:53:40;121.37;;;45.78;;
32491;SDS011;20605;49.742;18.802;2022-12-18T05:56:08;91.80;;;36.95;;
32491;SDS011;20605;49.742;18.802;2022-12-18T05:58:41;404.02;;;107.03;;
32491;SDS011;20605;49.742;18.802;2022-12-18T06:01:10;493.75;;;134.57;;
32491;SDS011;20605;49.742;18.802;2022-12-18T06:03:41;245.37;;;71.85;;
32491;SDS011;20605;49.742;18.802;2022-12-18T06:06:16;108.65;;;40.25;;
32491;SDS011;20605;49.742;18.802;2022-12-18T06:08:46;85.40;;;35.35;;
32491;SDS011;20605;49.742;18.802;2022-12-18T06:11:15;81.42;;;34.80;;
32491;SDS011;20605;49.742;18.802;2022-12-18T06:13:49;97.83;;;38.93;;
32491;SDS011;20605;49.742;18.802;2022-12-18T06:16:17;109.60;;;44.83;;
32491;SDS011;20605;49.742;18.802;2022-12-18T06:18:44;126.33;;;48.75;;
32491;SDS011;20605;49.742;18.802;2022-12-18T06:21:10;127.22;;;45.88;;
32491;SDS011;20605;49.742;18.802;2022-12-18T06:23:38;190.22;;;59.33;;
32491;SDS011;20605;49.742;18.802;2022-12-18T06:26:09;170.38;;;56.13;;
32491;SDS011;20605;49.742;18.802;2022-12-18T06:28:38;162.97;;;55.48;;
32491;SDS011;20605;49.742;18.802;2022-12-18T06:31:05;96.17;;;39.63;;
32491;SDS011;20605;49.742;18.802;2022-12-18T06:33:33;136.92;;;51.02;;
32491;SDS011;20605;49.742;18.802;2022-12-18T06:36:02;98.72;;;41.40;;
32491;SDS011;20605;49.742;18.802;2022-12-18T06:38:36;91.10;;;43.50;;
32491;SDS011;20605;49.742;18.802;2022-12-18T06:41:10;81.95;;;38.80;;
32491;SDS011;20605;49.742;18.802;2022-12-18T06:43:37;78.30;;;34.95;;
32491;SDS011;20605;49.742;18.802;2022-12-18T06:46:04;85.97;;;36.68;;
32491;SDS011;20605;49.742;18.802;2022-12-18T06:48:31;88.90;;;42.85;;
32491;SDS011;20605;49.742;18.802;2022-12-18T06:50:58;100.97;;;47.27;;
32491;SDS011;20605;49.742;18.802;2022-12-18T06:53:25;89.22;;;37.75;;
32491;SDS011;20605;49.742;18.802;2022-12-18T06:55:58;257.62;;;153.15;;
32491;SDS011;20605;49.742;18.802;2022-12-18T06:58:31;185.07;;;94.07;;
32491;SDS011;20605;49.742;18.802;2022-12-18T07:01:05;421.00;;;287.25;;
32491;SDS011;20605;49.742;18.802;2022-12-18T07:03:35;433.72;;;210.50;;
32491;SDS011;20605;49.742;18.802;2022-12-18T07:06:03;153.97;;;70.00;;
32491;SDS011;20605;49.742;18.802;2022-12-18T07:08:30;114.57;;;53.55;;
32491;SDS011;20605;49.742;18.802;2022-12-18T07:10:58;90.60;;;41.10;;
32491;SDS011;20605;49.742;18.802;2022-12-18T07:13:24;88.22;;;39.75;;
32491;SDS011;20605;49.742;18.802;2022-12-18T07:15:52;91.40;;;41.92;;
32491;SDS011;20605;49.742;18.802;2022-12-18T07:18:19;104.00;;;44.13;;
32491;SDS011;20605;49.742;18.802;2022-12-18T07:20:45;101.80;;;45.75;;
32491;SDS011;20605;49.742;18.802;2022-12-18T07:23:12;88.40;;;38.67;;
32491;SDS011;20605;49.742;18.802;2022-12-18T07:25:39;78.47;;;35.68;;
32491;SDS011;20605;49.742;18.802;2022-12-18T07:28:05;89.60;;;37.50;;
32491;SDS011;20605;49.742;18.802;2022-12-18T07:30:32;76.17;;;34.45;;
32491;SDS011;20605;49.742;18.802;2022-12-18T07:32:59;88.05;;;35.80;;
32491;SDS011;20605;49.742;18.802;2022-12-18T07:35:26;76.42;;;33.23;;
32491;SDS011;20605;49.742;18.802;2022-12-18T07:37:52;78.75;;;33.23;;
32491;SDS011;20605;49.742;18.802;2022-12-18T07:40:19;77.17;;;31.68;;
32491;SDS011;20605;49.742;18.802;2022-12-18T07:42:46;84.05;;;36.55;;
32491;SDS011;20605;49.742;18.802;2022-12-18T07:45:12;79.62;;;38.90;;
32491;SDS011;20605;49.742;18.802;2022-12-18T07:47:39;92.95;;;39.90;;
32491;SDS011;20605;49.742;18.802;2022-12-18T07:50:07;84.85;;;38.63;;
32491;SDS011;20605;49.742;18.802;2022-12-18T07:52:34;85.20;;;37.70;;
32491;SDS011;20605;49.742;18.802;2022-12-18T07:55:01;93.58;;;38.95;;
32491;SDS011;20605;49.742;18.802;2022-12-18T07:57:29;86.53;;;36.77;;
32491;SDS011;20605;49.742;18.802;2022-12-18T07:59:55;83.95;;;38.60;;
32491;SDS011;20605;49.742;18.802;2022-12-18T08:02:22;80.28;;;36.93;;
32491;SDS011;20605;49.742;18.802;2022-12-18T08:04:49;86.25;;;38.65;;
32491;SDS011;20605;49.742;18.802;2022-12-18T08:07:15;85.12;;;37.93;;
32491;SDS011;20605;49.742;18.802;2022-12-18T08:09:42;97.65;;;42.55;;
32491;SDS011;20605;49.742;18.802;2022-12-18T08:12:09;84.47;;;40.90;;
32491;SDS011;20605;49.742;18.802;2022-12-18T08:14:36;94.58;;;44.90;;
32491;SDS011;20605;49.742;18.802;2022-12-18T08:17:02;87.55;;;40.03;;
32491;SDS011;20605;49.742;18.802;2022-12-18T08:19:29;89.60;;;44.03;;
32491;SDS011;20605;49.742;18.802;2022-12-18T08:21:56;84.25;;;42.38;;
32491;SDS011;20605;49.742;18.802;2022-12-18T08:24:23;79.37;;;39.73;;
32491;SDS011;20605;49.742;18.802;2022-12-18T08:26:49;83.70;;;44.40;;
32491;SDS011;20605;49.742;18.802;2022-12-18T08:29:16;81.82;;;44.03;;
32491;SDS011;20605;49.742;18.802;2022-12-18T08:31:42;90.62;;;50.35;;
32491;SDS011;20605;49.742;18.802;2022-12-18T08:34:09;99.77;;;54.48;;
32491;SDS011;20605;49.742;18.802;2022-12-18T08:36:36;95.65;;;52.67;;
32491;SDS011;20605;49.742;18.802;2022-12-18T08:39:04;109.30;;;62.35;;
32491;SDS011;20605;49.742;18.802;2022-12-18T08:41:30;86.40;;;51.80;;
32491;SDS011;20605;49.742;18.802;2022-12-18T08:43:57;95.90;;;53.35;;
32491;SDS011;20605;49.742;18.802;2022-12-18T08:46:42;139.70;;;66.55;;
32491;SDS011;20605;49.742;18.802;2022-12-18T08:49:10;193.75;;;103.25;;
32491;SDS011;20605;49.742;18.802;2022-12-18T08:51:38;174.10;;;97.62;;
32491;SDS011;20605;49.742;18.802;2022-12-18T08:54:06;111.97;;;66.33;;
32491;SDS011;20605;49.742;18.802;2022-12-18T08:56:33;111.28;;;69.60;;
32491;SDS011;20605;49.742;18.802;2022-12-18T08:59:00;156.25;;;93.58;;
32491;SDS011;20605;49.742;18.802;2022-12-18T09:01:27;128.53;;;73.62;;
32491;SDS011;20605;49.742;18.802;2022-12-18T09:03:53;338.82;;;173.35;;
32491;SDS011;20605;49.742;18.802;2022-12-18T09:06:20;169.15;;;95.92;;
32491;SDS011;20605;49.742;18.802;2022-12-18T09:08:48;100.50;;;54.38;;
32491;SDS011;20605;49.742;18.802;2022-12-18T09:11:19;84.83;;;45.45;;
32491;SDS011;20605;49.742;18.802;2022-12-18T09:13:51;132.65;;;70.00;;
32491;SDS011;20605;49.742;18.802;2022-12-18T09:16:20;225.65;;;115.88;;
32491;SDS011;20605;49.742;18.802;2022-12-18T09:18:48;192.15;;;91.20;;
32491;SDS011;20605;49.742;18.802;2022-12-18T09:21:16;124.10;;;59.85;;
32491;SDS011;20605;49.742;18.802;2022-12-18T09:23:50;123.80;;;57.55;;
32491;SDS011;20605;49.742;18.802;2022-12-18T09:26:17;134.82;;;65.60;;
32491;SDS011;20605;49.742;18.802;2022-12-18T09:28:44;167.72;;;79.65;;
32491;SDS011;20605;49.742;18.802;2022-12-18T09:31:11;194.72;;;77.60;;
32491;SDS011;20605;49.742;18.802;2022-12-18T09:33:39;176.22;;;71.53;;
32491;SDS011;20605;49.742;18.802;2022-12-18T09:36:07;136.97;;;62.80;;
32491;SDS011;20605;49.742;18.802;2022-12-18T09:38:35;111.57;;;57.35;;
32491;SDS011;20605;49.742;18.802;2022-12-18T09:44:13;83.85;;;49.53;;
32491;SDS011;20605;49.742;18.802;2022-12-18T09:47:09;70.40;;;41.40;;
32491;SDS011;20605;49.742;18.802;2022-12-18T09:49:21;89.97;;;48.63;;
32491;SDS011;20605;49.742;18.802;2022-12-18T09:51:57;101.87;;;50.48;;
32491;SDS011;20605;49.742;18.802;2022-12-18T09:54:55;138.20;;;65.83;;
32491;SDS011;20605;49.742;18.802;2022-12-18T09:57:38;94.67;;;54.77;;
32491;SDS011;20605;49.742;18.802;2022-12-18T10:00:15;75.83;;;45.60;;
32491;SDS011;20605;49.742;18.802;2022-12-18T10:02:45;74.40;;;42.85;;
32491;SDS011;20605;49.742;18.802;2022-12-18T10:05:15;90.57;;;46.92;;
32491;SDS011;20605;49.742;18.802;2022-12-18T10:10:30;78.60;;;41.30;;
32491;SDS011;20605;49.742;18.802;2022-12-18T10:24:50;91.00;;;41.63;;
32491;SDS011;20605;49.742;18.802;2022-12-18T10:27:23;91.12;;;43.40;;
32491;SDS011;20605;49.742;18.802;2022-12-18T10:29:52;90.38;;;39.27;;
32491;SDS011;20605;49.742;18.802;2022-12-18T10:32:21;79.90;;;34.92;;
32491;SDS011;20605;49.742;18.802;2022-12-18T10:34:55;78.78;;;37.98;;
32491;SDS011;20605;49.742;18.802;2022-12-18T10:37:25;82.17;;;37.73;;
32491;SDS011;20605;49.742;18.802;2022-12-18T10:42:40;81.82;;;35.28;;
32491;SDS011;20605;49.742;18.802;2022-12-18T10:45:13;75.70;;;35.88;;
32491;SDS011;20605;49.742;18.802;2022-12-18T10:47:47;78.62;;;34.35;;
32491;SDS011;20605;49.742;18.802;2022-12-18T10:50:18;76.55;;;33.13;;
32491;SDS011;20605;49.742;18.802;2022-12-18T10:53:01;72.32;;;31.97;;
32491;SDS011;20605;49.742;18.802;2022-12-18T10:55:32;69.92;;;32.30;;
32491;SDS011;20605;49.742;18.802;2022-12-18T11:03:43;70.20;;;31.37;;
32491;SDS011;20605;49.742;18.802;2022-12-18T11:06:17;79.85;;;35.55;;
32491;SDS011;20605;49.742;18.802;2022-12-18T11:09:33;75.87;;;34.53;;
32491;SDS011;20605;49.742;18.802;2022-12-18T11:11:31;83.97;;;37.35;;
32491;SDS011;20605;49.742;18.802;2022-12-18T11:16:42;110.25;;;47.25;;
32491;SDS011;20605;49.742;18.802;2022-12-18T11:22:17;100.35;;;42.10;;
32491;SDS011;20605;49.742;18.802;2022-12-18T11:24:52;84.67;;;37.98;;
32491;SDS011;20605;49.742;18.802;2022-12-18T11:27:25;91.25;;;39.48;;
32491;SDS011;20605;49.742;18.802;2022-12-18T11:30:06;92.30;;;40.45;;
32491;SDS011;20605;49.742;18.802;2022-12-18T11:32:38;89.65;;;41.30;;
32491;SDS011;20605;49.742;18.802;2022-12-18T11:37:53;93.42;;;43.23;;
32491;SDS011;20605;49.742;18.802;2022-12-18T11:40:36;103.67;;;46.33;;
32491;SDS011;20605;49.742;18.802;2022-12-18T11:43:09;98.80;;;44.42;;
32491;SDS011;20605;49.742;18.802;2022-12-18T11:45:53;95.92;;;42.55;;
32491;SDS011;20605;49.742;18.802;2022-12-18T11:51:25;271.32;;;109.55;;
32491;SDS011;20605;49.742;18.802;2022-12-18T11:53:55;621.77;;;222.75;;
32491;SDS011;20605;49.742;18.802;2022-12-18T11:56:32;224.50;;;89.60;;
32491;SDS011;20605;49.742;18.802;2022-12-18T11:59:21;163.62;;;72.35;;
32491;SDS011;20605;49.742;18.802;2022-12-18T12:11:07;149.38;;;73.90;;
32491;SDS011;20605;49.742;18.802;2022-12-18T12:16:35;161.32;;;74.25;;
32491;SDS011;20605;49.742;18.802;2022-12-18T12:25:44;121.97;;;58.20;;
32491;SDS011;20605;49.742;18.802;2022-12-18T12:34:58;141.68;;;64.75;;
32491;SDS011;20605;49.742;18.802;2022-12-18T12:37:47;210.35;;;91.67;;
32491;SDS011;20605;49.742;18.802;2022-12-18T12:40:28;123.33;;;53.68;;
32491;SDS011;20605;49.742;18.802;2022-12-18T12:43:00;95.07;;;44.30;;
32491;SDS011;20605;49.742;18.802;2022-12-18T12:45:57;96.60;;;47.20;;
32491;SDS011;20605;49.742;18.802;2022-12-18T12:51:25;98.78;;;46.95;;
32491;SDS011;20605;49.742;18.802;2022-12-18T12:54:04;120.33;;;55.92;;
32491;SDS011;20605;49.742;18.802;2022-12-18T12:59:23;128.45;;;58.65;;
32491;SDS011;20605;49.742;18.802;2022-12-18T13:08:04;127.50;;;58.28;;
32491;SDS011;20605;49.742;18.802;2022-12-18T13:13:06;154.38;;;66.60;;
32491;SDS011;20605;49.742;18.802;2022-12-18T13:15:45;308.68;;;106.65;;
32491;SDS011;20605;49.742;18.802;2022-12-18T13:18:32;273.25;;;102.35;;
32491;SDS011;20605;49.742;18.802;2022-12-18T13:23:57;181.25;;;83.17;;
32491;SDS011;20605;49.742;18.802;2022-12-18T13:26:43;209.67;;;100.12;;
32491;SDS011;20605;49.742;18.802;2022-12-18T13:29:10;174.93;;;85.60;;
32491;SDS011;20605;49.742;18.802;2022-12-18T13:34:19;210.78;;;85.50;;
32491;SDS011;20605;49.742;18.802;2022-12-18T13:36:49;189.25;;;78.50;;
32491;SDS011;20605;49.742;18.802;2022-12-18T13:42:31;145.50;;;61.73;;
32491;SDS011;20605;49.742;18.802;2022-12-18T13:44:37;126.60;;;57.60;;
32491;SDS011;20605;49.742;18.802;2022-12-18T13:50:02;141.95;;;63.60;;
32491;SDS011;20605;49.742;18.802;2022-12-18T13:55:16;144.82;;;61.40;;
32491;SDS011;20605;49.742;18.802;2022-12-18T13:57:45;125.50;;;55.08;;
32491;SDS011;20605;49.742;18.802;2022-12-18T14:00:28;153.18;;;70.78;;
32491;SDS011;20605;49.742;18.802;2022-12-18T14:02:56;170.02;;;72.92;;
32491;SDS011;20605;49.742;18.802;2022-12-18T14:05:25;173.15;;;74.10;;
32491;SDS011;20605;49.742;18.802;2022-12-18T14:08:03;157.95;;;66.75;;
32491;SDS011;20605;49.742;18.802;2022-12-18T14:10:31;161.95;;;68.05;;
32491;SDS011;20605;49.742;18.802;2022-12-18T14:13:02;217.77;;;88.22;;
32491;SDS011;20605;49.742;18.802;2022-12-18T14:15:31;167.57;;;72.55;;
32491;SDS011;20605;49.742;18.802;2022-12-18T14:18:26;182.55;;;77.53;;
32491;SDS011;20605;49.742;18.802;2022-12-18T14:21:15;195.65;;;79.90;;
32491;SDS011;20605;49.742;18.802;2022-12-18T14:26:44;231.75;;;102.02;;
32491;SDS011;20605;49.742;18.802;2022-12-18T14:29:20;268.57;;;120.42;;
32491;SDS011;20605;49.742;18.802;2022-12-18T14:34:40;227.35;;;105.03;;
32491;SDS011;20605;49.742;18.802;2022-12-18T14:37:12;227.25;;;104.47;;
32491;SDS011;20605;49.742;18.802;2022-12-18T14:39:37;238.87;;;111.40;;
32491;SDS011;20605;49.742;18.802;2022-12-18T14:42:04;258.57;;;121.75;;
32491;SDS011;20605;49.742;18.802;2022-12-18T14:44:31;266.38;;;115.57;;
32491;SDS011;20605;49.742;18.802;2022-12-18T14:46:58;275.57;;;120.42;;
32491;SDS011;20605;49.742;18.802;2022-12-18T14:52:03;241.78;;;109.42;;
32491;SDS011;20605;49.742;18.802;2022-12-18T14:54:45;374.18;;;174.27;;
32491;SDS011;20605;49.742;18.802;2022-12-18T14:59:51;446.93;;;207.37;;
32491;SDS011;20605;49.742;18.802;2022-12-18T15:02:19;470.85;;;224.98;;
32491;SDS011;20605;49.742;18.802;2022-12-18T15:05:04;473.75;;;230.27;;
32491;SDS011;20605;49.742;18.802;2022-12-18T15:07:41;356.70;;;182.35;;
32491;SDS011;20605;49.742;18.802;2022-12-18T15:10:16;323.02;;;164.55;;
32491;SDS011;20605;49.742;18.802;2022-12-18T15:12:49;354.90;;;176.53;;
32491;SDS011;20605;49.742;18.802;2022-12-18T15:23:25;171.57;;;85.22;;
32491;SDS011;20605;49.742;18.802;2022-12-18T15:26:06;210.15;;;106.92;;
32491;SDS011;20605;49.742;18.802;2022-12-18T15:28:36;309.30;;;188.20;;
32491;SDS011;20605;49.742;18.802;2022-12-18T15:36:26;252.35;;;121.95;;
32491;SDS011;20605;49.742;18.802;2022-12-18T15:38:53;265.37;;;128.40;;
32491;SDS011;20605;49.742;18.802;2022-12-18T15:41:23;176.18;;;84.03;;
32491;SDS011;20605;49.742;18.802;2022-12-18T15:43:51;186.05;;;87.72;;
32491;SDS011;20605;49.742;18.802;2022-12-18T15:46:20;184.67;;;86.60;;
32491;SDS011;20605;49.742;18.802;2022-12-18T15:48:50;196.90;;;93.05;;
32491;SDS011;20605;49.742;18.802;2022-12-18T15:51:20;240.00;;;109.83;;
32491;SDS011;20605;49.742;18.802;2022-12-18T15:53:59;243.17;;;110.48;;
32491;SDS011;20605;49.742;18.802;2022-12-18T15:56:29;256.17;;;123.05;;
32491;SDS011;20605;49.742;18.802;2022-12-18T15:59:16;283.77;;;128.25;;
32491;SDS011;20605;49.742;18.802;2022-12-18T16:01:49;325.30;;;143.68;;
32491;SDS011;20605;49.742;18.802;2022-12-18T16:04:21;310.05;;;137.20;;
32491;SDS011;20605;49.742;18.802;2022-12-18T16:06:49;285.93;;;125.80;;
32491;SDS011;20605;49.742;18.802;2022-12-18T16:09:17;249.95;;;116.00;;
32491;SDS011;20605;49.742;18.802;2022-12-18T16:11:44;197.93;;;95.45;;
32491;SDS011;20605;49.742;18.802;2022-12-18T16:14:19;193.00;;;92.85;;
32491;SDS011;20605;49.742;18.802;2022-12-18T16:16:48;231.30;;;109.30;;
32491;SDS011;20605;49.742;18.802;2022-12-18T16:19:17;260.60;;;125.67;;
32491;SDS011;20605;49.742;18.802;2022-12-18T16:21:44;280.50;;;134.12;;
32491;SDS011;20605;49.742;18.802;2022-12-18T16:24:16;234.35;;;104.58;;
32491;SDS011;20605;49.742;18.802;2022-12-18T16:26:51;448.28;;;166.92;;
32491;SDS011;20605;49.742;18.802;2022-12-18T16:29:36;242.15;;;106.22;;
32491;SDS011;20605;49.742;18.802;2022-12-18T16:34:46;217.40;;;94.92;;
32491;SDS011;20605;49.742;18.802;2022-12-18T16:37:15;204.93;;;92.62;;
32491;SDS011;20605;49.742;18.802;2022-12-18T16:39:42;182.82;;;82.30;;
32491;SDS011;20605;49.742;18.802;2022-12-18T16:42:16;170.30;;;78.05;;
32491;SDS011;20605;49.742;18.802;2022-12-18T16:44:45;180.45;;;77.53;;
32491;SDS011;20605;49.742;18.802;2022-12-18T16:47:14;217.13;;;91.50;;
32491;SDS011;20605;49.742;18.802;2022-12-18T16:49:42;235.02;;;96.15;;
32491;SDS011;20605;49.742;18.802;2022-12-18T16:52:14;218.55;;;93.92;;
32491;SDS011;20605;49.742;18.802;2022-12-18T16:54:40;208.75;;;87.97;;
32491;SDS011;20605;49.742;18.802;2022-12-18T16:57:08;227.43;;;91.82;;